sensor_id;sensor_type;location;lat;lon;timestamp;pressure;altitude;pressure_sealevel;temperature;humidity
77017;BME280;65949;53.132;17.930;2023-09-12T00:00:06;100790.71;;;16.49;74.55
77017;BME280;65949;53.132;17.930;2023-09-12T00:02:58;100786.34;;;16.46;74.60
77017;BME280;65949;53.132;17.930;2023-09-12T00:05:25;100786.08;;;16.43;74.76
77017;BME280;65949;53.132;17.930;2023-09-12T00:07:52;100787.25;;;16.41;75.05
77017;BME280;65949;53.132;17.930;2023-09-12T00:10:20;100784.73;;;16.39;75.01
77017;BME280;65949;53.132;17.930;2023-09-12T00:12:46;100784.65;;;16.38;75.02
77017;BME280;65949;53.132;17.930;2023-09-12T00:15:13;100787.15;;;16.36;75.23
77017;BME280;65949;53.132;17.930;2023-09-12T00:17:40;100785.39;;;16.34;75.16
77017;BME280;65949;53.132;17.930;2023-09-12T00:20:07;100781.21;;;16.32;75.30
77017;BME280;65949;53.132;17.930;2023-09-12T00:22:34;100784.49;;;16.30;75.37
77017;BME280;65949;53.132;17.930;2023-09-12T00:25:01;100786.38;;;16.28;75.44
77017;BME280;65949;53.132;17.930;2023-09-12T00:27:28;100788.09;;;16.26;75.37
77017;BME280;65949;53.132;17.930;2023-09-12T00:29:54;100787.70;;;16.24;75.33
77017;BME280;65949;53.132;17.930;2023-09-12T00:32:21;100790.56;;;16.23;75.44
77017;BME280;65949;53.132;17.930;2023-09-12T00:34:47;100790.38;;;16.21;75.50
77017;BME280;65949;53.132;17.930;2023-09-12T00:37:14;100786.83;;;16.19;75.60
77017;BME280;65949;53.132;17.930;2023-09-12T00:39:40;100786.06;;;16.18;75.73
77017;BME280;65949;53.132;17.930;2023-09-12T00:42:07;100785.37;;;16.15;75.79
77017;BME280;65949;53.132;17.930;2023-09-12T00:44:34;100785.20;;;16.12;75.77
77017;BME280;65949;53.132;17.930;2023-09-12T00:47:01;100785.24;;;16.09;75.86
77017;BME280;65949;53.132;17.930;2023-09-12T00:49:29;100783.20;;;16.08;75.93
77017;BME280;65949;53.132;17.930;2023-09-12T00:51:57;100781.23;;;16.06;75.89
77017;BME280;65949;53.132;17.930;2023-09-12T00:54:25;100780.09;;;16.05;76.05
77017;BME280;65949;53.132;17.930;2023-09-12T00:56:52;100779.80;;;16.04;76.03
77017;BME280;65949;53.132;17.930;2023-09-12T00:59:19;100777.40;;;16.02;75.97
77017;BME280;65949;53.132;17.930;2023-09-12T01:01:46;100778.77;;;16.01;76.15
77017;BME280;65949;53.132;17.930;2023-09-12T01:04:13;100778.33;;;15.99;76.23
77017;BME280;65949;53.132;17.930;2023-09-12T01:06:40;100774.14;;;15.98;76.19
77017;BME280;65949;53.132;17.930;2023-09-12T01:09:07;100772.84;;;15.97;76.15
77017;BME280;65949;53.132;17.930;2023-09-12T01:11:34;100774.35;;;15.95;76.12
77017;BME280;65949;53.132;17.930;2023-09-12T01:14:01;100773.95;;;15.93;76.23
77017;BME280;65949;53.132;17.930;2023-09-12T01:16:27;100774.98;;;15.91;76.27
77017;BME280;65949;53.132;17.930;2023-09-12T01:18:54;100773.48;;;15.89;76.28
77017;BME280;65949;53.132;17.930;2023-09-12T01:27:34;100771.30;;;15.80;76.28
77017;BME280;65949;53.132;17.930;2023-09-12T01:30:04;100774.55;;;15.77;76.42
77017;BME280;65949;53.132;17.930;2023-09-12T01:32:32;100771.95;;;15.75;76.59
77017;BME280;65949;53.132;17.930;2023-09-12T01:35:00;100773.70;;;15.73;76.60
77017;BME280;65949;53.132;17.930;2023-09-12T01:37:26;100775.40;;;15.71;76.59
77017;BME280;65949;53.132;17.930;2023-09-12T01:39:53;100777.01;;;15.69;76.58
77017;BME280;65949;53.132;17.930;2023-09-12T01:42:21;100781.08;;;15.67;76.58
77017;BME280;65949;53.132;17.930;2023-09-12T01:44:55;100780.16;;;15.65;76.66
77017;BME280;65949;53.132;17.930;2023-09-12T01:47:23;100781.56;;;15.63;76.68
77017;BME280;65949;53.132;17.930;2023-09-12T01:49:56;100787.98;;;15.61;76.79
77017;BME280;65949;53.132;17.930;2023-09-12T01:52:24;100785.89;;;15.60;76.75
77017;BME280;65949;53.132;17.930;2023-09-12T01:54:52;100784.70;;;15.59;76.81
77017;BME280;65949;53.132;17.930;2023-09-12T01:57:19;100787.31;;;15.57;76.71
77017;BME280;65949;53.132;17.930;2023-09-12T01:59:49;100788.48;;;15.55;76.80
77017;BME280;65949;53.132;17.930;2023-09-12T02:02:16;100787.52;;;15.51;76.68
77017;BME280;65949;53.132;17.930;2023-09-12T02:07:37;100786.68;;;15.43;76.80
77017;BME280;65949;53.132;17.930;2023-09-12T02:10:05;100786.36;;;15.38;76.84
77017;BME280;65949;53.132;17.930;2023-09-12T02:12:32;100784.98;;;15.33;76.87
77017;BME280;65949;53.132;17.930;2023-09-12T02:14:58;100787.80;;;15.29;76.89
77017;BME280;65949;53.132;17.930;2023-09-12T02:17:25;100788.47;;;15.26;76.89
77017;BME280;65949;53.132;17.930;2023-09-12T02:19:52;100790.66;;;15.22;76.91
77017;BME280;65949;53.132;17.930;2023-09-12T02:22:18;100791.84;;;15.19;77.12
77017;BME280;65949;53.132;17.930;2023-09-12T02:24:46;100793.14;;;15.16;77.14
77017;BME280;65949;53.132;17.930;2023-09-12T02:27:12;100794.25;;;15.15;77.13
77017;BME280;65949;53.132;17.930;2023-09-12T02:29:39;100789.29;;;15.13;77.12
77017;BME280;65949;53.132;17.930;2023-09-12T02:32:06;100787.98;;;15.12;77.18
77017;BME280;65949;53.132;17.930;2023-09-12T02:34:33;100789.91;;;15.08;77.25
77017;BME280;65949;53.132;17.930;2023-09-12T02:37:00;100789.31;;;15.06;77.35
77017;BME280;65949;53.132;17.930;2023-09-12T02:39:27;100788.16;;;15.03;77.46
77017;BME280;65949;53.132;17.930;2023-09-12T02:41:54;100793.07;;;15.03;77.33
77017;BME280;65949;53.132;17.930;2023-09-12T02:44:20;100794.25;;;15.00;77.47
77017;BME280;65949;53.132;17.930;2023-09-12T02:46:47;100795.79;;;14.98;77.49
77017;BME280;65949;53.132;17.930;2023-09-12T02:49:15;100797.70;;;14.96;77.50
77017;BME280;65949;53.132;17.930;2023-09-12T02:51:42;100799.93;;;14.93;77.65
77017;BME280;65949;53.132;17.930;2023-09-12T02:54:08;100798.46;;;14.91;77.61
77017;BME280;65949;53.132;17.930;2023-09-12T02:56:35;100799.66;;;14.90;77.69
77017;BME280;65949;53.132;17.930;2023-09-12T02:59:02;100799.39;;;14.88;77.83
77017;BME280;65949;53.132;17.930;2023-09-12T03:01:29;100799.89;;;14.85;77.69
77017;BME280;65949;53.132;17.930;2023-09-12T03:03:57;100794.67;;;14.82;77.76
77017;BME280;65949;53.132;17.930;2023-09-12T03:06:23;100795.27;;;14.80;77.75
77017;BME280;65949;53.132;17.930;2023-09-12T03:08:50;100794.98;;;14.78;77.81
77017;BME280;65949;53.132;17.930;2023-09-12T03:11:17;100790.75;;;14.75;77.90
77017;BME280;65949;53.132;17.930;2023-09-12T03:13:43;100792.65;;;14.74;77.91
77017;BME280;65949;53.132;17.930;2023-09-12T03:16:14;100790.79;;;14.72;77.93
77017;BME280;65949;53.132;17.930;2023-09-12T03:18:41;100793.36;;;14.71;77.91
77017;BME280;65949;53.132;17.930;2023-09-12T03:21:07;100791.23;;;14.69;77.93
77017;BME280;65949;53.132;17.930;2023-09-12T03:23:34;100792.61;;;14.66;78.03
77017;BME280;65949;53.132;17.930;2023-09-12T03:26:02;100792.48;;;14.64;78.05
77017;BME280;65949;53.132;17.930;2023-09-12T03:28:31;100791.90;;;14.62;78.06
77017;BME280;65949;53.132;17.930;2023-09-12T03:31:07;100792.70;;;14.61;78.00
77017;BME280;65949;53.132;17.930;2023-09-12T03:33:34;100793.25;;;14.59;78.18
77017;BME280;65949;53.132;17.930;2023-09-12T03:36:01;100791.17;;;14.58;78.35
77017;BME280;65949;53.132;17.930;2023-09-12T03:38:27;100792.79;;;14.57;78.35
77017;BME280;65949;53.132;17.930;2023-09-12T03:40:54;100790.38;;;14.56;78.31
77017;BME280;65949;53.132;17.930;2023-09-12T03:43:21;100786.12;;;14.51;78.26
77017;BME280;65949;53.132;17.930;2023-09-12T03:45:48;100791.89;;;14.51;78.48
77017;BME280;65949;53.132;17.930;2023-09-12T03:48:16;100788.09;;;14.49;78.50
77017;BME280;65949;53.132;17.930;2023-09-12T03:50:42;100788.94;;;14.47;78.48
77017;BME280;65949;53.132;17.930;2023-09-12T03:53:09;100787.16;;;14.46;78.57
77017;BME280;65949;53.132;17.930;2023-09-12T03:55:35;100787.33;;;14.45;78.50
77017;BME280;65949;53.132;17.930;2023-09-12T03:58:03;100789.70;;;14.44;78.49
77017;BME280;65949;53.132;17.930;2023-09-12T04:00:29;100789.39;;;14.42;78.52
77017;BME280;65949;53.132;17.930;2023-09-12T04:02:56;100790.20;;;14.39;78.65
77017;BME280;65949;53.132;17.930;2023-09-12T04:05:23;100789.73;;;14.37;78.61
77017;BME280;65949;53.132;17.930;2023-09-12T04:07:49;100792.01;;;14.35;78.63
77017;BME280;65949;53.132;17.930;2023-09-12T04:10:17;100790.50;;;14.33;78.68
77017;BME280;65949;53.132;17.930;2023-09-12T04:12:45;100795.80;;;14.33;78.67
77017;BME280;65949;53.132;17.930;2023-09-12T04:15:12;100797.91;;;14.32;78.73
77017;BME280;65949;53.132;17.930;2023-09-12T04:17:38;100794.98;;;14.31;78.73
77017;BME280;65949;53.132;17.930;2023-09-12T04:20:06;100794.81;;;14.30;78.72
77017;BME280;65949;53.132;17.930;2023-09-12T04:22:33;100796.29;;;14.29;78.66
77017;BME280;65949;53.132;17.930;2023-09-12T04:25:00;100799.23;;;14.28;78.64
77017;BME280;65949;53.132;17.930;2023-09-12T04:27:27;100795.73;;;14.26;78.64
77017;BME280;65949;53.132;17.930;2023-09-12T04:29:54;100794.48;;;14.25;78.67
77017;BME280;65949;53.132;17.930;2023-09-12T04:32:20;100791.09;;;14.25;78.75
77017;BME280;65949;53.132;17.930;2023-09-12T04:34:50;100793.16;;;14.25;78.83
77017;BME280;65949;53.132;17.930;2023-09-12T04:37:17;100794.70;;;14.26;78.79
77017;BME280;65949;53.132;17.930;2023-09-12T04:39:45;100795.13;;;14.25;78.76
77017;BME280;65949;53.132;17.930;2023-09-12T04:42:12;100793.13;;;14.26;78.83
77017;BME280;65949;53.132;17.930;2023-09-12T04:44:40;100796.73;;;14.27;78.91
77017;BME280;65949;53.132;17.930;2023-09-12T04:47:07;100793.20;;;14.28;78.83
77017;BME280;65949;53.132;17.930;2023-09-12T04:49:34;100794.09;;;14.30;78.93
77017;BME280;65949;53.132;17.930;2023-09-12T04:52:01;100796.33;;;14.33;78.87
77017;BME280;65949;53.132;17.930;2023-09-12T04:54:28;100792.11;;;14.36;78.99
77017;BME280;65949;53.132;17.930;2023-09-12T04:56:54;100794.45;;;14.39;78.92
77017;BME280;65949;53.132;17.930;2023-09-12T04:59:21;100794.99;;;14.43;79.08
77017;BME280;65949;53.132;17.930;2023-09-12T05:01:47;100794.07;;;14.49;79.03
77017;BME280;65949;53.132;17.930;2023-09-12T05:04:15;100794.48;;;14.55;78.93
77017;BME280;65949;53.132;17.930;2023-09-12T05:06:42;100796.90;;;14.61;78.88
77017;BME280;65949;53.132;17.930;2023-09-12T05:09:08;100797.12;;;14.66;78.84
77017;BME280;65949;53.132;17.930;2023-09-12T05:11:37;100795.44;;;14.74;78.71
77017;BME280;65949;53.132;17.930;2023-09-12T05:14:04;100803.97;;;14.81;78.67
77017;BME280;65949;53.132;17.930;2023-09-12T05:16:31;100802.16;;;14.90;78.62
77017;BME280;65949;53.132;17.930;2023-09-12T05:18:57;100807.70;;;14.99;78.48
77017;BME280;65949;53.132;17.930;2023-09-12T05:21:24;100810.70;;;15.08;78.47
77017;BME280;65949;53.132;17.930;2023-09-12T05:23:51;100810.96;;;15.18;78.22
77017;BME280;65949;53.132;17.930;2023-09-12T05:26:17;100811.36;;;15.44;77.80
77017;BME280;65949;53.132;17.930;2023-09-12T05:28:44;100810.10;;;15.87;77.02
77017;BME280;65949;53.132;17.930;2023-09-12T05:31:11;100807.69;;;16.24;76.47
77017;BME280;65949;53.132;17.930;2023-09-12T05:33:38;100807.73;;;16.58;75.80
77017;BME280;65949;53.132;17.930;2023-09-12T05:36:04;100807.73;;;16.89;75.19
77017;BME280;65949;53.132;17.930;2023-09-12T05:38:31;100804.24;;;17.13;74.77
77017;BME280;65949;53.132;17.930;2023-09-12T05:40:57;100800.23;;;17.40;74.12
77017;BME280;65949;53.132;17.930;2023-09-12T05:43:24;100799.34;;;17.62;73.45
77017;BME280;65949;53.132;17.930;2023-09-12T05:45:52;100798.96;;;17.77;73.12
77017;BME280;65949;53.132;17.930;2023-09-12T05:48:18;100800.27;;;17.80;72.92
77017;BME280;65949;53.132;17.930;2023-09-12T05:50:45;100799.92;;;17.74;72.97
77017;BME280;65949;53.132;17.930;2023-09-12T05:53:12;100800.77;;;17.67;73.14
77017;BME280;65949;53.132;17.930;2023-09-12T05:55:39;100801.41;;;17.66;72.90
77017;BME280;65949;53.132;17.930;2023-09-12T05:58:05;100803.67;;;17.66;72.64
77017;BME280;65949;53.132;17.930;2023-09-12T06:00:33;100803.33;;;17.65;72.66
77017;BME280;65949;53.132;17.930;2023-09-12T06:03:00;100804.27;;;17.68;72.62
77017;BME280;65949;53.132;17.930;2023-09-12T06:05:27;100807.27;;;17.70;72.64
77017;BME280;65949;53.132;17.930;2023-09-12T06:07:54;100802.83;;;17.71;72.52
77017;BME280;65949;53.132;17.930;2023-09-12T06:10:21;100807.00;;;17.73;72.54
77017;BME280;65949;53.132;17.930;2023-09-12T06:12:48;100808.95;;;17.76;72.43
77017;BME280;65949;53.132;17.930;2023-09-12T06:15:16;100810.38;;;17.81;72.35
77017;BME280;65949;53.132;17.930;2023-09-12T06:17:42;100810.14;;;17.87;72.34
77017;BME280;65949;53.132;17.930;2023-09-12T06:20:09;100807.61;;;17.95;72.33
77017;BME280;65949;53.132;17.930;2023-09-12T06:22:36;100805.96;;;18.05;72.18
77017;BME280;65949;53.132;17.930;2023-09-12T06:25:02;100806.71;;;18.16;72.23
77017;BME280;65949;53.132;17.930;2023-09-12T06:27:29;100806.81;;;18.28;72.19
77017;BME280;65949;53.132;17.930;2023-09-12T06:29:57;100813.58;;;18.40;71.94
77017;BME280;65949;53.132;17.930;2023-09-12T06:32:24;100813.26;;;18.51;71.79
77017;BME280;65949;53.132;17.930;2023-09-12T06:34:51;100813.08;;;18.62;71.89
77017;BME280;65949;53.132;17.930;2023-09-12T06:37:17;100811.21;;;18.75;71.60
77017;BME280;65949;53.132;17.930;2023-09-12T06:39:44;100815.48;;;18.89;71.58
77017;BME280;65949;53.132;17.930;2023-09-12T06:42:11;100816.88;;;19.00;71.43
77017;BME280;65949;53.132;17.930;2023-09-12T06:44:38;100819.36;;;19.13;71.31
77017;BME280;65949;53.132;17.930;2023-09-12T06:47:04;100821.38;;;19.27;71.19
77017;BME280;65949;53.132;17.930;2023-09-12T06:49:31;100820.09;;;19.41;70.86
77017;BME280;65949;53.132;17.930;2023-09-12T06:52:02;100818.21;;;19.56;70.54
77017;BME280;65949;53.132;17.930;2023-09-12T06:54:29;100819.67;;;19.69;70.36
77017;BME280;65949;53.132;17.930;2023-09-12T06:56:55;100820.95;;;19.84;69.99
77017;BME280;65949;53.132;17.930;2023-09-12T06:59:22;100821.53;;;19.98;69.90
77017;BME280;65949;53.132;17.930;2023-09-12T07:01:49;100818.52;;;20.14;69.74
77017;BME280;65949;53.132;17.930;2023-09-12T07:04:15;100821.48;;;20.30;69.26
77017;BME280;65949;53.132;17.930;2023-09-12T07:06:42;100820.54;;;20.43;68.95
77017;BME280;65949;53.132;17.930;2023-09-12T07:09:09;100819.45;;;20.56;68.71
77017;BME280;65949;53.132;17.930;2023-09-12T07:11:38;100818.23;;;20.71;68.50
77017;BME280;65949;53.132;17.930;2023-09-12T07:14:04;100814.06;;;20.84;68.27
77017;BME280;65949;53.132;17.930;2023-09-12T07:16:32;100813.67;;;20.98;67.75
77017;BME280;65949;53.132;17.930;2023-09-12T07:18:58;100814.60;;;21.10;67.57
77017;BME280;65949;53.132;17.930;2023-09-12T07:21:25;100816.27;;;21.23;67.19
77017;BME280;65949;53.132;17.930;2023-09-12T07:23:51;100818.33;;;21.36;66.83
77017;BME280;65949;53.132;17.930;2023-09-12T07:26:18;100818.55;;;21.49;66.46
77017;BME280;65949;53.132;17.930;2023-09-12T07:28:45;100814.85;;;21.62;65.98
77017;BME280;65949;53.132;17.930;2023-09-12T07:31:12;100815.42;;;21.74;65.47
77017;BME280;65949;53.132;17.930;2023-09-12T07:33:38;100814.92;;;21.86;65.07
77017;BME280;65949;53.132;17.930;2023-09-12T07:36:05;100817.66;;;21.99;64.82
77017;BME280;65949;53.132;17.930;2023-09-12T07:38:32;100815.39;;;22.13;64.39
77017;BME280;65949;53.132;17.930;2023-09-12T07:41:01;100819.30;;;22.29;64.32
77017;BME280;65949;53.132;17.930;2023-09-12T07:43:29;100816.96;;;22.44;63.71
77017;BME280;65949;53.132;17.930;2023-09-12T07:45:57;100820.83;;;22.60;62.81
77017;BME280;65949;53.132;17.930;2023-09-12T07:48:24;100820.07;;;22.69;61.99
77017;BME280;65949;53.132;17.930;2023-09-12T07:50:51;100819.92;;;22.81;61.14
77017;BME280;65949;53.132;17.930;2023-09-12T07:53:18;100818.17;;;22.92;61.10
77017;BME280;65949;53.132;17.930;2023-09-12T07:55:44;100821.43;;;23.03;61.16
77017;BME280;65949;53.132;17.930;2023-09-12T07:58:16;100817.95;;;23.13;60.45
77017;BME280;65949;53.132;17.930;2023-09-12T08:00:47;100817.71;;;23.25;60.17
77017;BME280;65949;53.132;17.930;2023-09-12T08:03:14;100812.70;;;23.38;59.85
77017;BME280;65949;53.132;17.930;2023-09-12T08:05:43;100817.83;;;23.51;59.71
77017;BME280;65949;53.132;17.930;2023-09-12T08:08:10;100817.38;;;23.63;59.39
77017;BME280;65949;53.132;17.930;2023-09-12T08:10:36;100818.81;;;23.74;59.07
77017;BME280;65949;53.132;17.930;2023-09-12T08:13:03;100818.27;;;23.83;58.10
77017;BME280;65949;53.132;17.930;2023-09-12T08:15:30;100821.28;;;23.92;57.32
77017;BME280;65949;53.132;17.930;2023-09-12T08:17:57;100824.66;;;24.01;55.59
77017;BME280;65949;53.132;17.930;2023-09-12T08:20:23;100823.48;;;24.10;54.78
77017;BME280;65949;53.132;17.930;2023-09-12T08:22:50;100822.77;;;24.20;53.82
77017;BME280;65949;53.132;17.930;2023-09-12T08:25:17;100820.02;;;24.30;54.03
77017;BME280;65949;53.132;17.930;2023-09-12T08:27:43;100820.53;;;24.40;53.32
77017;BME280;65949;53.132;17.930;2023-09-12T08:30:11;100822.70;;;24.50;53.04
77017;BME280;65949;53.132;17.930;2023-09-12T08:32:40;100817.66;;;24.58;52.53
77017;BME280;65949;53.132;17.930;2023-09-12T08:35:11;100818.52;;;24.66;52.41
77017;BME280;65949;53.132;17.930;2023-09-12T08:37:42;100813.50;;;24.75;51.89
77017;BME280;65949;53.132;17.930;2023-09-12T08:40:10;100814.30;;;24.86;51.72
77017;BME280;65949;53.132;17.930;2023-09-12T08:42:41;100812.81;;;24.96;51.18
77017;BME280;65949;53.132;17.930;2023-09-12T08:45:16;100814.09;;;25.05;50.63
77017;BME280;65949;53.132;17.930;2023-09-12T08:47:45;100812.40;;;25.11;50.12
77017;BME280;65949;53.132;17.930;2023-09-12T08:50:14;100811.66;;;25.17;49.14
77017;BME280;65949;53.132;17.930;2023-09-12T08:52:45;100809.60;;;25.24;48.84
77017;BME280;65949;53.132;17.930;2023-09-12T08:55:13;100809.45;;;25.33;48.59
77017;BME280;65949;53.132;17.930;2023-09-12T08:57:41;100808.83;;;25.41;48.39
77017;BME280;65949;53.132;17.930;2023-09-12T09:00:10;100812.15;;;25.50;48.48
77017;BME280;65949;53.132;17.930;2023-09-12T09:02:40;100813.97;;;25.57;48.32
77017;BME280;65949;53.132;17.930;2023-09-12T09:05:08;100813.40;;;25.62;47.60
77017;BME280;65949;53.132;17.930;2023-09-12T09:07:37;100812.60;;;25.67;47.23
77017;BME280;65949;53.132;17.930;2023-09-12T09:10:06;100813.30;;;25.74;47.54
77017;BME280;65949;53.132;17.930;2023-09-12T09:12:34;100813.30;;;25.82;47.55
77017;BME280;65949;53.132;17.930;2023-09-12T09:17:48;100807.84;;;25.94;46.90
77017;BME280;65949;53.132;17.930;2023-09-12T09:20:29;100804.52;;;25.99;46.25
77017;BME280;65949;53.132;17.930;2023-09-12T09:22:57;100801.20;;;26.04;45.59
77017;BME280;65949;53.132;17.930;2023-09-12T09:25:24;100800.77;;;26.13;45.93
77017;BME280;65949;53.132;17.930;2023-09-12T09:27:51;100796.42;;;26.21;45.75
77017;BME280;65949;53.132;17.930;2023-09-12T09:30:17;100795.46;;;26.27;45.86
77017;BME280;65949;53.132;17.930;2023-09-12T09:32:45;100792.29;;;26.36;46.37
77017;BME280;65949;53.132;17.930;2023-09-12T09:35:13;100794.79;;;26.44;45.77
77017;BME280;65949;53.132;17.930;2023-09-12T09:37:41;100789.84;;;26.47;45.45
77017;BME280;65949;53.132;17.930;2023-09-12T09:40:08;100788.08;;;26.52;45.51
77017;BME280;65949;53.132;17.930;2023-09-12T09:42:37;100782.36;;;26.61;45.68
77017;BME280;65949;53.132;17.930;2023-09-12T09:45:04;100777.48;;;26.65;45.05
77017;BME280;65949;53.132;17.930;2023-09-12T09:47:32;100779.23;;;26.69;44.94
77017;BME280;65949;53.132;17.930;2023-09-12T09:49:58;100772.80;;;26.73;44.75
77017;BME280;65949;53.132;17.930;2023-09-12T09:52:26;100771.19;;;26.78;44.17
77017;BME280;65949;53.132;17.930;2023-09-12T09:54:56;100773.84;;;26.85;44.32
77017;BME280;65949;53.132;17.930;2023-09-12T09:57:25;100769.81;;;26.92;43.03
77017;BME280;65949;53.132;17.930;2023-09-12T09:59:52;100770.67;;;26.97;43.88
77017;BME280;65949;53.132;17.930;2023-09-12T10:02:21;100771.38;;;27.03;43.91
77017;BME280;65949;53.132;17.930;2023-09-12T10:04:50;100773.52;;;27.03;44.08
77017;BME280;65949;53.132;17.930;2023-09-12T10:07:20;100774.34;;;27.02;43.71
77017;BME280;65949;53.132;17.930;2023-09-12T10:09:47;100772.20;;;27.02;43.75
77017;BME280;65949;53.132;17.930;2023-09-12T10:12:14;100770.40;;;27.04;43.40
77017;BME280;65949;53.132;17.930;2023-09-12T10:14:41;100766.31;;;27.07;42.91
77017;BME280;65949;53.132;17.930;2023-09-12T10:17:10;100764.43;;;27.10;42.82
77017;BME280;65949;53.132;17.930;2023-09-12T10:19:43;100766.89;;;27.11;42.15
77017;BME280;65949;53.132;17.930;2023-09-12T10:22:37;100764.33;;;27.12;42.38
77017;BME280;65949;53.132;17.930;2023-09-12T10:25:06;100767.45;;;27.21;42.29
77017;BME280;65949;53.132;17.930;2023-09-12T10:27:33;100769.05;;;27.29;42.37
77017;BME280;65949;53.132;17.930;2023-09-12T10:30:02;100767.36;;;27.38;42.98
77017;BME280;65949;53.132;17.930;2023-09-12T10:32:30;100764.41;;;27.43;42.72
77017;BME280;65949;53.132;17.930;2023-09-12T10:34:59;100765.56;;;27.43;41.36
77017;BME280;65949;53.132;17.930;2023-09-12T10:37:28;100764.73;;;27.43;41.49
77017;BME280;65949;53.132;17.930;2023-09-12T10:39:57;100764.18;;;27.48;41.31
77017;BME280;65949;53.132;17.930;2023-09-12T10:42:25;100758.89;;;27.52;41.99
77017;BME280;65949;53.132;17.930;2023-09-12T10:44:54;100758.71;;;27.56;41.93
77017;BME280;65949;53.132;17.930;2023-09-12T10:47:22;100757.66;;;27.58;40.93
77017;BME280;65949;53.132;17.930;2023-09-12T10:49:50;100757.73;;;27.63;42.04
77017;BME280;65949;53.132;17.930;2023-09-12T10:52:27;100752.09;;;27.70;41.69
77017;BME280;65949;53.132;17.930;2023-09-12T10:54:54;100747.95;;;27.76;41.37
77017;BME280;65949;53.132;17.930;2023-09-12T10:57:20;100747.20;;;27.82;40.61
77017;BME280;65949;53.132;17.930;2023-09-12T11:02:36;100743.43;;;27.92;40.50
77017;BME280;65949;53.132;17.930;2023-09-12T11:05:05;100744.86;;;27.97;40.49
77017;BME280;65949;53.132;17.930;2023-09-12T11:10:21;100745.96;;;28.07;41.31
77017;BME280;65949;53.132;17.930;2023-09-12T11:12:53;100748.70;;;28.12;41.44
77017;BME280;65949;53.132;17.930;2023-09-12T11:15:22;100752.06;;;28.19;40.68
77017;BME280;65949;53.132;17.930;2023-09-12T11:17:59;100749.95;;;28.22;39.44
77017;BME280;65949;53.132;17.930;2023-09-12T11:23:16;100745.05;;;28.30;38.84
77017;BME280;65949;53.132;17.930;2023-09-12T11:25:43;100743.26;;;28.33;38.17
77017;BME280;65949;53.132;17.930;2023-09-12T11:28:10;100745.64;;;28.34;38.15
77017;BME280;65949;53.132;17.930;2023-09-12T11:30:36;100746.67;;;28.31;38.79
77017;BME280;65949;53.132;17.930;2023-09-12T11:33:21;100748.52;;;28.31;39.05
77017;BME280;65949;53.132;17.930;2023-09-12T11:35:52;100748.73;;;28.37;39.30
77017;BME280;65949;53.132;17.930;2023-09-12T11:38:27;100742.86;;;28.47;39.34
77017;BME280;65949;53.132;17.930;2023-09-12T11:40:56;100743.49;;;28.56;39.34
77017;BME280;65949;53.132;17.930;2023-09-12T11:43:24;100741.90;;;28.66;39.79
77017;BME280;65949;53.132;17.930;2023-09-12T11:45:52;100744.40;;;28.73;38.60
77017;BME280;65949;53.132;17.930;2023-09-12T11:48:19;100744.25;;;28.74;38.40
77017;BME280;65949;53.132;17.930;2023-09-12T11:50:54;100744.95;;;28.75;38.59
77017;BME280;65949;53.132;17.930;2023-09-12T11:53:23;100742.67;;;28.77;38.43
77017;BME280;65949;53.132;17.930;2023-09-12T11:55:56;100739.91;;;28.78;37.47
77017;BME280;65949;53.132;17.930;2023-09-12T11:58:24;100739.68;;;28.77;37.30
77017;BME280;65949;53.132;17.930;2023-09-12T12:00:55;100737.70;;;28.79;37.09
77017;BME280;65949;53.132;17.930;2023-09-12T12:03:24;100736.20;;;28.83;36.72
77017;BME280;65949;53.132;17.930;2023-09-12T12:05:51;100735.23;;;28.87;36.70
77017;BME280;65949;53.132;17.930;2023-09-12T12:08:18;100740.17;;;28.93;37.38
77017;BME280;65949;53.132;17.930;2023-09-12T12:10:52;100735.33;;;28.99;37.62
77017;BME280;65949;53.132;17.930;2023-09-12T12:13:20;100736.78;;;29.05;36.98
77017;BME280;65949;53.132;17.930;2023-09-12T12:15:47;100732.98;;;29.13;37.20
77017;BME280;65949;53.132;17.930;2023-09-12T12:18:14;100731.98;;;29.24;37.35
77017;BME280;65949;53.132;17.930;2023-09-12T12:20:41;100732.51;;;29.36;36.51
77017;BME280;65949;53.132;17.930;2023-09-12T12:23:08;100733.38;;;29.41;35.84
77017;BME280;65949;53.132;17.930;2023-09-12T12:25:35;100733.55;;;29.44;35.76
77017;BME280;65949;53.132;17.930;2023-09-12T12:28:03;100735.79;;;29.47;35.83
77017;BME280;65949;53.132;17.930;2023-09-12T12:30:34;100735.35;;;29.52;35.92
77017;BME280;65949;53.132;17.930;2023-09-12T12:33:06;100729.66;;;29.59;35.87
77017;BME280;65949;53.132;17.930;2023-09-12T12:35:33;100727.84;;;29.65;35.84
77017;BME280;65949;53.132;17.930;2023-09-12T12:38:00;100726.69;;;29.67;35.56
77017;BME280;65949;53.132;17.930;2023-09-12T12:40:27;100724.48;;;29.69;35.34
77017;BME280;65949;53.132;17.930;2023-09-12T12:42:53;100725.27;;;29.75;35.73
77017;BME280;65949;53.132;17.930;2023-09-12T12:45:23;100724.14;;;29.85;36.06
77017;BME280;65949;53.132;17.930;2023-09-12T12:47:55;100717.73;;;29.94;35.83
77017;BME280;65949;53.132;17.930;2023-09-12T12:50:21;100715.59;;;29.99;34.77
77017;BME280;65949;53.132;17.930;2023-09-12T12:52:48;100715.44;;;29.98;34.88
77017;BME280;65949;53.132;17.930;2023-09-12T12:55:16;100712.06;;;30.01;35.56
77017;BME280;65949;53.132;17.930;2023-09-12T12:57:44;100711.38;;;30.04;35.98
77017;BME280;65949;53.132;17.930;2023-09-12T13:00:13;100710.91;;;30.07;35.86
77017;BME280;65949;53.132;17.930;2023-09-12T13:02:41;100710.54;;;30.07;35.40